createdAt,value
2023-01-09T00:01:26.431Z,3.93
2023-01-09T00:03:56.028Z,3.92
2023-01-09T00:06:25.453Z,3.91
2023-01-09T00:08:53.280Z,3.89
2023-01-09T00:11:21.234Z,3.88
2023-01-09T00:13:49.072Z,3.88
2023-01-09T00:16:17.907Z,3.90
2023-01-09T00:18:46.166Z,3.88
2023-01-09T00:21:16.020Z,3.86
2023-01-09T00:23:44.003Z,3.85
2023-01-09T00:26:13.784Z,3.86
2023-01-09T00:28:41.984Z,3.84
2023-01-09T00:31:11.101Z,3.84
2023-01-09T00:33:42.776Z,3.82
2023-01-09T00:36:11.903Z,3.81
2023-01-09T00:38:41.379Z,3.80
2023-01-09T00:41:13.108Z,3.78
2023-01-09T00:43:45.695Z,3.78
2023-01-09T00:46:16.045Z,3.79
2023-01-09T00:48:47.446Z,3.77
2023-01-09T00:51:16.762Z,3.77
2023-01-09T00:53:46.876Z,3.78
2023-01-09T00:56:17.932Z,3.78
2023-01-09T00:58:46.864Z,3.79
2023-01-09T01:01:15.214Z,3.75
2023-01-09T01:03:43.153Z,3.80
2023-01-09T01:06:28.839Z,3.78
2023-01-09T01:08:58.065Z,3.77
2023-01-09T01:11:26.186Z,3.76
2023-01-09T01:13:54.339Z,3.76
2023-01-09T01:16:22.300Z,3.74
2023-01-09T01:18:50.578Z,3.74
2023-01-09T01:21:18.962Z,3.75
2023-01-09T01:23:46.889Z,3.73
2023-01-09T01:26:17.574Z,3.72
2023-01-09T01:28:45.477Z,3.72
2023-01-09T01:31:18.338Z,3.70
2023-01-09T01:33:46.256Z,3.72
2023-01-09T01:36:16.235Z,3.74
2023-01-09T01:38:44.942Z,3.74
2023-01-09T01:41:12.775Z,3.74
2023-01-09T01:43:57.207Z,3.73
2023-01-09T01:46:25.220Z,3.71
2023-01-09T01:48:58.991Z,3.72
2023-01-09T01:51:29.811Z,3.74
2023-01-09T01:54:02.581Z,3.74
2023-01-09T01:56:36.522Z,3.74
2023-01-09T01:59:11.110Z,3.72
2023-01-09T02:01:42.116Z,3.74
2023-01-09T02:04:11.163Z,3.71
2023-01-09T02:06:39.927Z,3.70
2023-01-09T02:09:08.869Z,3.70
2023-01-09T02:11:36.793Z,3.70
2023-01-09T02:14:06.202Z,3.69
2023-01-09T02:16:49.356Z,3.66
2023-01-09T02:19:52.511Z,3.65
2023-01-09T02:22:31.261Z,3.63
2023-01-09T02:25:20.130Z,3.64
2023-01-09T02:28:20.062Z,3.64
2023-01-09T02:30:53.009Z,3.63
2023-01-09T02:33:43.674Z,3.62
2023-01-09T02:36:21.011Z,3.62
2023-01-09T02:39:03.213Z,3.62
2023-01-09T02:41:38.055Z,3.61
2023-01-09T02:44:17.896Z,3.59
2023-01-09T02:46:47.387Z,3.58
2023-01-09T02:49:17.535Z,3.60
2023-01-09T02:51:53.068Z,3.59
2023-01-09T02:54:38.827Z,3.62
2023-01-09T02:57:30.156Z,3.63
2023-01-09T03:00:10.320Z,3.68
2023-01-09T03:02:43.901Z,3.65
2023-01-09T03:05:20.280Z,3.70
2023-01-09T03:07:57.107Z,3.72
2023-01-09T03:10:29.911Z,3.71
2023-01-09T03:13:00.043Z,3.70
2023-01-09T03:15:32.201Z,3.72
2023-01-09T03:18:02.138Z,3.73
2023-01-09T03:20:32.197Z,3.73
2023-01-09T03:23:02.169Z,3.76
2023-01-09T03:25:31.458Z,3.80
2023-01-09T03:28:01.165Z,3.78
2023-01-09T03:30:31.170Z,3.77
2023-01-09T03:32:59.606Z,3.76
2023-01-09T03:35:30.146Z,3.75
2023-01-09T03:37:59.038Z,3.77
2023-01-09T03:40:27.022Z,3.77
2023-01-09T03:42:54.952Z,3.77
2023-01-09T03:45:22.941Z,3.78
2023-01-09T03:47:52.966Z,3.77
2023-01-09T03:50:21.025Z,3.77
2023-01-09T03:52:50.391Z,3.75
2023-01-09T03:55:18.346Z,3.73
2023-01-09T03:57:46.230Z,3.71
2023-01-09T04:00:15.110Z,3.69
2023-01-09T04:02:43.315Z,3.71
2023-01-09T04:05:11.693Z,3.71
2023-01-09T04:07:39.786Z,3.72
2023-01-09T04:10:11.667Z,3.74
2023-01-09T04:12:39.595Z,3.75
2023-01-09T04:15:08.662Z,3.75
2023-01-09T04:17:36.687Z,3.75
2023-01-09T04:20:05.554Z,3.75
2023-01-09T04:22:33.559Z,3.74
2023-01-09T04:25:01.490Z,3.73
2023-01-09T04:27:31.485Z,3.74
2023-01-09T04:29:59.400Z,3.75
2023-01-09T04:32:27.706Z,3.75
2023-01-09T04:34:55.570Z,3.74
2023-01-09T04:37:24.812Z,3.73
2023-01-09T04:39:56.086Z,3.73
2023-01-09T04:42:24.654Z,3.73
2023-01-09T04:44:54.402Z,3.72
2023-01-09T04:47:23.805Z,3.74
2023-01-09T04:49:52.037Z,3.73
2023-01-09T04:52:20.112Z,3.75
2023-01-09T04:54:48.068Z,3.78
2023-01-09T04:57:16.062Z,3.78
2023-01-09T04:59:43.967Z,3.80
2023-01-09T05:02:13.427Z,3.79
2023-01-09T05:04:41.335Z,3.78
2023-01-09T05:07:09.391Z,3.78
2023-01-09T05:09:37.292Z,3.79
2023-01-09T05:12:05.578Z,3.81
2023-01-09T05:14:33.537Z,3.80
2023-01-09T05:17:01.479Z,3.81
2023-01-09T05:19:30.718Z,3.80
2023-01-09T05:21:58.596Z,3.78
2023-01-09T05:24:26.461Z,3.77
2023-01-09T05:26:54.481Z,3.75
2023-01-09T05:29:22.469Z,3.78
2023-01-09T05:31:52.807Z,3.81
2023-01-09T05:34:20.827Z,3.82
2023-01-09T05:36:50.150Z,3.79
2023-01-09T05:39:18.138Z,3.76
2023-01-09T05:41:46.041Z,3.75
2023-01-09T05:44:13.975Z,3.75
2023-01-09T05:46:41.773Z,3.75
2023-01-09T05:49:09.595Z,3.74
2023-01-09T05:51:37.544Z,3.74
2023-01-09T05:54:07.552Z,3.70
2023-01-09T05:56:35.518Z,3.67
2023-01-09T05:59:03.379Z,3.67
2023-01-09T06:01:31.392Z,3.66
2023-01-09T06:03:59.308Z,3.63
2023-01-09T06:06:27.211Z,3.62
2023-01-09T06:08:55.149Z,3.63
2023-01-09T06:11:24.451Z,3.61
2023-01-09T06:13:52.389Z,3.62
2023-01-09T06:16:20.376Z,3.61
2023-01-09T06:18:48.352Z,3.59
2023-01-09T06:21:16.266Z,3.60
2023-01-09T06:23:44.224Z,3.58
2023-01-09T06:26:12.176Z,3.59
2023-01-09T06:28:42.895Z,3.59
2023-01-09T06:31:13.298Z,3.59
2023-01-09T06:33:41.444Z,3.60
2023-01-09T06:36:10.090Z,3.58
2023-01-09T06:38:38.039Z,3.57
2023-01-09T06:41:06.297Z,3.58
2023-01-09T06:43:34.141Z,3.56
2023-01-09T06:46:05.781Z,3.55
2023-01-09T06:48:36.185Z,3.54
2023-01-09T06:51:04.633Z,3.54
2023-01-09T06:53:32.612Z,3.51
2023-01-09T06:56:02.270Z,3.50
2023-01-09T06:58:30.440Z,3.52
2023-01-09T07:00:59.587Z,3.52
2023-01-09T07:03:28.903Z,3.53
2023-01-09T07:05:56.872Z,3.56
2023-01-09T07:08:24.819Z,3.56
2023-01-09T07:10:52.668Z,3.56
2023-01-09T07:13:20.629Z,3.58
2023-01-09T07:15:50.122Z,3.58
2023-01-09T07:18:18.038Z,3.59
2023-01-09T07:20:47.376Z,3.60
2023-01-09T07:23:15.564Z,3.61
2023-01-09T07:25:44.054Z,3.61
2023-01-09T07:28:12.428Z,3.57
2023-01-09T07:30:42.389Z,3.54
2023-01-09T07:33:10.343Z,3.53
2023-01-09T07:35:38.383Z,3.54
2023-01-09T07:38:07.682Z,3.54
2023-01-09T07:40:35.591Z,3.50
2023-01-09T07:43:04.010Z,3.46
2023-01-09T07:45:31.978Z,3.43
2023-01-09T07:47:59.921Z,3.40
2023-01-09T07:50:27.803Z,3.40
2023-01-09T07:52:55.820Z,3.41
2023-01-09T07:55:25.146Z,3.43
2023-01-09T07:57:53.541Z,3.44
2023-01-09T08:00:22.192Z,3.43
2023-01-09T08:02:53.954Z,3.44
2023-01-09T08:05:22.443Z,3.43
2023-01-09T08:07:51.519Z,3.42
2023-01-09T08:10:21.330Z,3.43
2023-01-09T08:12:51.024Z,3.44
2023-01-09T08:15:19.568Z,3.44
2023-01-09T08:17:48.015Z,3.42
2023-01-09T08:20:20.683Z,3.41
2023-01-09T08:22:50.706Z,3.40
2023-01-09T08:25:21.195Z,3.38
2023-01-09T08:27:50.744Z,3.38
2023-01-09T08:30:19.443Z,3.40
2023-01-09T08:32:50.470Z,3.40
2023-01-09T08:35:18.765Z,3.40
2023-01-09T08:37:47.019Z,3.40
2023-01-09T08:40:16.426Z,3.39
2023-01-09T08:43:01.791Z,3.39
2023-01-09T08:45:51.156Z,3.39
2023-01-09T08:48:19.095Z,3.36
2023-01-09T08:50:47.204Z,3.38
2023-01-09T08:53:15.511Z,3.40
2023-01-09T08:55:43.570Z,3.42
2023-01-09T08:58:11.557Z,3.41
2023-01-09T09:00:40.822Z,3.42
2023-01-09T09:03:08.738Z,3.43
2023-01-09T09:05:36.661Z,3.45
2023-01-09T09:08:04.843Z,3.49
2023-01-09T09:10:32.823Z,3.48
2023-01-09T09:13:01.113Z,3.47
2023-01-09T09:15:29.561Z,3.48
2023-01-09T09:18:00.782Z,3.50
2023-01-09T09:20:31.077Z,3.52
2023-01-09T09:22:59.019Z,3.52
2023-01-09T09:25:27.558Z,3.56
2023-01-09T09:27:56.410Z,3.61
2023-01-09T09:30:25.235Z,3.63
2023-01-09T09:32:53.386Z,3.65
2023-01-09T09:35:22.708Z,3.66
2023-01-09T09:37:58.642Z,3.67
2023-01-09T09:40:38.629Z,3.66
2023-01-09T09:43:43.400Z,3.69
2023-01-09T09:46:21.601Z,3.71
2023-01-09T09:48:53.089Z,3.74
2023-01-09T09:51:56.472Z,3.77
2023-01-09T09:54:28.652Z,3.79
2023-01-09T09:57:00.419Z,3.80
2023-01-09T09:59:32.356Z,3.84
2023-01-09T10:02:03.804Z,3.86
2023-01-09T10:04:34.740Z,3.88
2023-01-09T10:07:09.428Z,3.91
2023-01-09T10:09:48.410Z,3.93
2023-01-09T10:12:28.949Z,3.93
2023-01-09T10:14:58.839Z,3.94
2023-01-09T10:17:51.638Z,3.94
2023-01-09T10:20:57.243Z,3.96
2023-01-09T10:23:57.745Z,3.97
2023-01-09T10:26:30.436Z,3.96
2023-01-09T10:29:13.967Z,3.96
2023-01-09T10:31:57.574Z,3.97
2023-01-09T10:34:37.729Z,3.96
2023-01-09T10:37:12.145Z,3.98
2023-01-09T10:39:46.400Z,3.99
2023-01-09T10:42:21.873Z,4.01
2023-01-09T10:44:55.380Z,4.00
2023-01-09T10:47:27.946Z,4.00
2023-01-09T10:49:56.717Z,4.01
2023-01-09T10:52:31.204Z,4.01
2023-01-09T10:55:04.702Z,4.03
2023-01-09T10:57:42.295Z,4.07
2023-01-09T11:00:22.357Z,4.10
2023-01-09T11:02:51.382Z,4.10
2023-01-09T11:05:21.893Z,4.08
2023-01-09T11:07:54.459Z,4.07
2023-01-09T11:10:23.773Z,4.09
2023-01-09T11:12:51.592Z,4.13
2023-01-09T11:15:30.101Z,4.16
2023-01-09T11:18:24.583Z,4.15
2023-01-09T11:20:53.405Z,4.14
2023-01-09T11:23:27.139Z,4.14
2023-01-09T11:25:58.531Z,4.14
2023-01-09T11:28:26.700Z,4.16
2023-01-09T11:30:57.270Z,4.17
2023-01-09T11:33:28.480Z,4.19
2023-01-09T11:36:00.836Z,4.21
2023-01-09T11:38:30.484Z,4.24
2023-01-09T11:41:01.923Z,4.26
2023-01-09T11:43:33.976Z,4.27
2023-01-09T11:46:05.782Z,4.26
2023-01-09T11:48:37.883Z,4.27
2023-01-09T11:51:17.248Z,4.26
2023-01-09T11:54:24.123Z,4.22
2023-01-09T11:56:54.220Z,4.20
2023-01-09T11:59:26.085Z,4.19
2023-01-09T12:02:25.245Z,4.16
2023-01-09T12:04:57.341Z,4.17
2023-01-09T12:08:03.139Z,4.18
2023-01-09T12:10:50.724Z,4.15
2023-01-09T12:13:33.149Z,4.16
2023-01-09T12:16:12.446Z,4.15
2023-01-09T12:18:58.379Z,4.16
2023-01-09T12:21:34.615Z,4.15
2023-01-09T12:24:31.799Z,4.09
2023-01-09T12:27:14.993Z,4.08
2023-01-09T12:30:26.807Z,4.08
2023-01-09T12:33:13.566Z,4.08
2023-01-09T12:35:45.401Z,4.06
2023-01-09T12:38:26.285Z,4.07
2023-01-09T12:41:11.054Z,4.08
2023-01-09T12:43:48.281Z,4.07
2023-01-09T12:46:20.550Z,4.06
2023-01-09T12:49:08.520Z,4.05
2023-01-09T12:51:41.248Z,4.05
2023-01-09T12:54:16.196Z,4.04
2023-01-09T12:56:50.908Z,4.06
2023-01-09T12:59:30.747Z,4.07
2023-01-09T13:02:08.926Z,4.07
2023-01-09T13:04:42.624Z,4.08
2023-01-09T13:07:18.534Z,4.10
2023-01-09T13:09:50.695Z,4.08
2023-01-09T13:12:21.859Z,4.04
2023-01-09T13:14:55.973Z,3.99
2023-01-09T13:17:31.091Z,3.99
2023-01-09T13:19:58.991Z,3.99
2023-01-09T13:22:30.340Z,4.00
2023-01-09T13:25:18.405Z,3.99
2023-01-09T13:27:56.607Z,3.99
2023-01-09T13:30:41.076Z,3.99
2023-01-09T13:33:19.677Z,4.00
2023-01-09T13:35:55.711Z,3.99
2023-01-09T13:38:26.002Z,3.99
2023-01-09T13:41:36.519Z,3.95
2023-01-09T13:44:05.600Z,3.93
2023-01-09T13:46:37.472Z,3.97
2023-01-09T13:49:08.890Z,3.97
2023-01-09T13:51:59.473Z,3.95
2023-01-09T13:55:02.322Z,3.95
2023-01-09T13:57:34.761Z,3.96
2023-01-09T14:00:39.868Z,3.94
2023-01-09T14:03:19.362Z,3.94
2023-01-09T14:06:20.690Z,3.94
2023-01-09T14:09:05.091Z,3.94
2023-01-09T14:11:33.772Z,3.95
2023-01-09T14:14:23.697Z,3.93
2023-01-09T14:16:51.902Z,3.96
2023-01-09T14:19:27.197Z,3.97
2023-01-09T14:21:57.272Z,3.95
2023-01-09T14:24:29.946Z,3.94
2023-01-09T14:26:59.956Z,3.94
2023-01-09T14:29:52.702Z,3.94
2023-01-09T14:32:46.102Z,3.93
2023-01-09T14:35:24.372Z,3.94
2023-01-09T14:38:03.787Z,3.92
2023-01-09T14:40:34.386Z,3.90
2023-01-09T14:43:18.443Z,3.88
2023-01-09T14:45:50.620Z,3.90
2023-01-09T14:48:19.143Z,3.89
2023-01-09T14:50:55.225Z,3.88
2023-01-09T14:53:30.746Z,3.84
2023-01-09T14:56:01.772Z,3.82
2023-01-09T14:58:31.677Z,3.82
2023-01-09T15:01:03.306Z,3.82
2023-01-09T15:03:35.837Z,3.82
2023-01-09T15:06:04.325Z,3.85
2023-01-09T15:08:33.601Z,3.86
2023-01-09T15:11:03.220Z,3.89
2023-01-09T15:13:35.595Z,3.92
2023-01-09T15:16:07.048Z,3.95
2023-01-09T15:18:41.282Z,3.98
2023-01-09T15:21:18.688Z,4.00
2023-01-09T15:23:46.797Z,4.02
2023-01-09T15:26:26.322Z,3.99
2023-01-09T15:29:01.248Z,4.00
2023-01-09T15:31:30.057Z,4.00
2023-01-09T15:33:58.439Z,3.99
2023-01-09T15:36:31.941Z,3.97
2023-01-09T15:39:00.749Z,3.99
2023-01-09T15:41:49.129Z,3.97
2023-01-09T15:44:21.009Z,3.99
2023-01-09T15:46:50.667Z,4.00
2023-01-09T15:49:19.992Z,4.02
2023-01-09T15:51:49.949Z,4.03
2023-01-09T15:54:22.149Z,4.04
2023-01-09T15:56:51.356Z,4.02
2023-01-09T15:59:28.045Z,4.04
2023-01-09T16:02:20.820Z,4.06
2023-01-09T16:04:50.011Z,4.06
2023-01-09T16:07:21.238Z,4.08
2023-01-09T16:09:52.732Z,4.09
2023-01-09T16:12:25.017Z,4.09
2023-01-09T16:14:55.189Z,4.11
2023-01-09T16:17:26.581Z,4.15
2023-01-09T16:19:55.961Z,4.16
2023-01-09T16:22:25.620Z,4.19
2023-01-09T16:24:54.837Z,4.21
2023-01-09T16:27:27.154Z,4.27
2023-01-09T16:29:58.222Z,4.28
2023-01-09T16:32:29.726Z,4.32
2023-01-09T16:35:00.783Z,4.36
2023-01-09T16:37:29.180Z,4.40
2023-01-09T16:40:32.146Z,4.42
2023-01-09T16:43:01.657Z,4.41
2023-01-09T16:45:32.311Z,4.41
2023-01-09T16:48:00.978Z,4.43
2023-01-09T16:50:29.532Z,4.42
2023-01-09T16:52:58.410Z,4.43
2023-01-09T16:55:26.445Z,4.43
2023-01-09T16:57:54.415Z,4.44
2023-01-09T17:00:24.098Z,4.45
2023-01-09T17:02:52.115Z,4.45
2023-01-09T17:05:20.072Z,4.45
2023-01-09T17:07:48.072Z,4.47
2023-01-09T17:10:21.554Z,4.49
2023-01-09T17:12:50.908Z,4.49
2023-01-09T17:15:19.055Z,4.48
2023-01-09T17:17:48.376Z,4.47
2023-01-09T17:20:19.408Z,4.51
2023-01-09T17:22:47.328Z,4.50
2023-01-09T17:25:34.057Z,4.50
2023-01-09T17:28:20.756Z,4.49
2023-01-09T17:30:51.689Z,4.49
2023-01-09T17:33:21.215Z,4.49
2023-01-09T17:35:49.189Z,4.50
2023-01-09T17:38:17.292Z,4.50
2023-01-09T17:40:45.925Z,4.48
2023-01-09T17:43:13.838Z,4.47
2023-01-09T17:45:43.057Z,4.47
2023-01-09T17:48:16.539Z,4.48
2023-01-09T17:50:46.846Z,4.45
2023-01-09T17:53:14.888Z,4.42
2023-01-09T17:55:43.269Z,4.47
2023-01-09T17:58:25.208Z,4.44
2023-01-09T18:00:53.488Z,4.47
2023-01-09T18:03:23.070Z,4.45
2023-01-09T18:05:52.695Z,4.44
2023-01-09T18:08:20.693Z,4.43
2023-01-09T18:10:49.086Z,4.42
2023-01-09T18:13:17.740Z,4.43
2023-01-09T18:15:47.163Z,4.40
2023-01-09T18:18:16.242Z,4.40
2023-01-09T18:20:45.419Z,4.38
2023-01-09T18:23:15.382Z,4.36
2023-01-09T18:25:44.431Z,4.33
2023-01-09T18:28:15.230Z,4.32
2023-01-09T18:30:45.553Z,4.30
2023-01-09T18:33:13.387Z,4.22
2023-01-09T18:35:41.346Z,4.26
2023-01-09T18:38:09.690Z,4.24
2023-01-09T18:40:39.463Z,4.23
2023-01-09T18:43:07.983Z,4.20
2023-01-09T18:45:37.824Z,4.18
2023-01-09T18:48:06.566Z,4.14
2023-01-09T18:50:34.561Z,4.13
2023-01-09T18:53:02.427Z,4.10
2023-01-09T18:55:30.365Z,4.07
2023-01-09T18:57:59.661Z,4.04
2023-01-09T19:00:27.617Z,4.02
2023-01-09T19:02:55.633Z,3.99
2023-01-09T19:05:25.414Z,3.96
2023-01-09T19:07:53.286Z,3.94
2023-01-09T19:10:21.192Z,3.92
2023-01-09T19:12:49.098Z,3.91
2023-01-09T19:15:18.486Z,3.91
2023-01-09T19:17:47.025Z,3.89
2023-01-09T19:20:14.934Z,3.89
2023-01-09T19:22:42.845Z,3.86
2023-01-09T19:25:12.555Z,3.86
2023-01-09T19:27:40.539Z,3.84
2023-01-09T19:30:10.090Z,3.81
2023-01-09T19:32:40.778Z,3.81
2023-01-09T19:35:11.704Z,3.80
2023-01-09T19:37:39.615Z,3.78
2023-01-09T19:40:10.632Z,3.77
2023-01-09T19:42:38.595Z,3.75
2023-01-09T19:45:09.635Z,3.74
2023-01-09T19:47:38.945Z,3.73
2023-01-09T19:50:08.371Z,3.71
2023-01-09T19:52:37.491Z,3.72
2023-01-09T19:55:06.038Z,3.71
2023-01-09T19:57:33.971Z,3.71
2023-01-09T20:00:02.764Z,3.73
2023-01-09T20:02:30.752Z,3.72
2023-01-09T20:05:00.067Z,3.70
2023-01-09T20:07:27.984Z,3.71
2023-01-09T20:09:56.161Z,3.71
2023-01-09T20:12:24.084Z,3.71
2023-01-09T20:14:52.087Z,3.70
2023-01-09T20:17:20.501Z,3.67
2023-01-09T20:19:48.318Z,3.65
2023-01-09T20:22:17.672Z,3.64
2023-01-09T20:24:45.473Z,3.62
2023-01-09T20:27:13.373Z,3.64
2023-01-09T20:29:41.283Z,3.64
2023-01-09T20:32:10.288Z,3.62
2023-01-09T20:34:38.213Z,3.64
2023-01-09T20:37:06.149Z,3.59
2023-01-09T20:39:35.353Z,3.58
2023-01-09T20:42:03.275Z,3.56
2023-01-09T20:44:31.245Z,3.57
2023-01-09T20:46:59.133Z,3.57
2023-01-09T20:49:26.990Z,3.54
2023-01-09T20:51:54.869Z,3.55
2023-01-09T20:54:23.515Z,3.53
2023-01-09T20:56:53.703Z,3.51
2023-01-09T20:59:22.261Z,3.43
2023-01-09T21:01:50.421Z,3.45
2023-01-09T21:04:18.954Z,3.44
2023-01-09T21:06:49.628Z,3.43
2023-01-09T21:09:17.976Z,3.41
2023-01-09T21:11:45.824Z,3.37
2023-01-09T21:14:15.168Z,3.35
2023-01-09T21:16:45.535Z,3.33
2023-01-09T21:19:19.608Z,3.31
2023-01-09T21:21:47.536Z,3.28
2023-01-09T21:24:15.395Z,3.26
2023-01-09T21:26:43.497Z,3.25
2023-01-09T21:29:14.873Z,3.26
2023-01-09T21:31:44.126Z,3.25
2023-01-09T21:34:14.676Z,3.21
2023-01-09T21:36:44.894Z,3.18
2023-01-09T21:39:12.680Z,3.12
2023-01-09T21:41:58.045Z,3.14
2023-01-09T21:44:44.928Z,3.12
2023-01-09T21:47:13.835Z,3.09
2023-01-09T21:49:43.211Z,3.08
2023-01-09T21:52:12.864Z,3.05
2023-01-09T21:54:41.722Z,3.03
2023-01-09T21:57:09.639Z,2.99
2023-01-09T21:59:39.005Z,2.97
2023-01-09T22:02:07.006Z,2.96
2023-01-09T22:04:34.826Z,2.93
2023-01-09T22:07:02.731Z,2.92
2023-01-09T22:09:30.556Z,2.90
2023-01-09T22:11:58.636Z,2.87
2023-01-09T22:14:26.564Z,2.85
2023-01-09T22:16:55.866Z,2.82
2023-01-09T22:19:23.750Z,2.79
2023-01-09T22:21:51.662Z,2.79
2023-01-09T22:24:21.733Z,2.77
2023-01-09T22:26:49.845Z,2.74
2023-01-09T22:29:17.876Z,2.73
2023-01-09T22:31:45.880Z,2.73
2023-01-09T22:34:17.692Z,2.70
2023-01-09T22:36:46.431Z,2.69
2023-01-09T22:39:15.865Z,2.68
2023-01-09T22:41:44.113Z,2.65
2023-01-09T22:44:13.515Z,2.62
2023-01-09T22:46:41.421Z,2.65
2023-01-09T22:49:12.000Z,2.63
2023-01-09T22:51:41.611Z,2.60
2023-01-09T22:54:12.599Z,2.59
2023-01-09T22:56:40.463Z,2.57
2023-01-09T22:59:08.464Z,2.55
2023-01-09T23:01:36.435Z,2.53
2023-01-09T23:04:04.716Z,2.50
2023-01-09T23:06:32.656Z,2.49
2023-01-09T23:09:01.917Z,2.45
2023-01-09T23:11:49.124Z,2.42
2023-01-09T23:14:17.764Z,2.37
2023-01-09T23:16:45.695Z,2.35
2023-01-09T23:19:15.738Z,2.31
2023-01-09T23:21:44.809Z,2.26
2023-01-09T23:24:15.530Z,2.22
2023-01-09T23:26:44.697Z,2.14
2023-01-09T23:29:13.463Z,2.08
2023-01-09T23:31:41.741Z,2.03
2023-01-09T23:34:09.963Z,1.97
2023-01-09T23:36:37.907Z,1.93
2023-01-09T23:39:09.069Z,1.89
2023-01-09T23:41:56.329Z,1.85
2023-01-09T23:44:24.204Z,1.82
2023-01-09T23:46:52.545Z,1.79
2023-01-09T23:49:20.676Z,1.76
2023-01-09T23:51:48.767Z,1.73
2023-01-09T23:54:17.344Z,1.70
2023-01-09T23:56:46.639Z,1.67
2023-01-09T23:59:17.550Z,1.66
